createdAt,value
2022-12-23T00:00:07.647Z,-3.2
2022-12-23T00:05:05.869Z,-3.2
2022-12-23T00:10:04.651Z,-3.1
2022-12-23T00:15:03.572Z,-3
2022-12-23T00:20:01.843Z,-3
2022-12-23T00:25:00.179Z,-3
2022-12-23T00:29:57.517Z,-3
2022-12-23T00:34:55.675Z,-3
2022-12-23T00:39:55.149Z,-3.2
2022-12-23T00:44:52.023Z,-3.3
2022-12-23T00:49:50.490Z,-3.6
2022-12-23T00:54:48.591Z,-3.7
2022-12-23T00:59:46.752Z,-3.7
2022-12-23T01:04:44.834Z,-3.8
2022-12-23T01:09:42.865Z,-3.8
2022-12-23T01:14:41.156Z,-3.8
2022-12-23T01:19:39.506Z,-3.7
2022-12-23T01:24:37.866Z,-3.5
2022-12-23T01:29:36.396Z,-3.4
2022-12-23T01:34:37.312Z,-3.2
2022-12-23T01:39:34.167Z,-3.2
2022-12-23T01:44:32.611Z,-3
2022-12-23T01:49:31.221Z,-2.9
2022-12-23T01:54:29.341Z,-2.6
2022-12-23T01:59:27.602Z,-2.6
2022-12-23T02:04:25.783Z,-2.7
2022-12-23T02:09:24.231Z,-2.5
2022-12-23T02:14:22.404Z,-2.5
2022-12-23T02:19:20.695Z,-2.3
2022-12-23T02:24:19.051Z,-2.2
2022-12-23T02:29:17.586Z,-1.9
2022-12-23T02:34:16.033Z,-1.7
2022-12-23T02:39:14.366Z,-1.6
2022-12-23T02:44:12.720Z,-1.5
2022-12-23T02:49:10.829Z,-1.3
2022-12-23T02:54:09.274Z,-1.1
2022-12-23T02:59:07.735Z,-1
2022-12-23T03:04:06.808Z,-1
2022-12-23T03:09:04.565Z,-0.9
2022-12-23T03:14:03.049Z,-0.9
2022-12-23T03:19:01.230Z,-0.8
2022-12-23T03:23:59.531Z,-0.8
2022-12-23T03:28:57.622Z,-0.9
2022-12-23T03:33:56.006Z,-0.8
2022-12-23T03:38:54.421Z,-0.9
2022-12-23T03:43:52.689Z,-0.8
2022-12-23T03:48:51.009Z,-0.7
2022-12-23T03:53:49.359Z,-0.8
2022-12-23T03:58:47.715Z,-1
2022-12-23T04:03:45.997Z,-1
2022-12-23T04:08:44.382Z,-1
2022-12-23T04:13:42.774Z,-1
2022-12-23T04:18:40.990Z,-1.1
2022-12-23T04:23:39.278Z,-1.2
2022-12-23T04:28:37.616Z,-1.1
2022-12-23T04:33:35.858Z,-1.2
2022-12-23T04:38:34.218Z,-1
2022-12-23T04:43:32.623Z,-0.9
2022-12-23T04:48:30.959Z,-0.9
2022-12-23T04:53:29.372Z,-0.7
2022-12-23T04:58:27.898Z,-0.8
2022-12-23T05:03:26.326Z,-0.8
2022-12-23T05:08:24.498Z,-0.7
2022-12-23T05:13:23.095Z,-0.5
2022-12-23T05:18:21.467Z,-0.5
2022-12-23T05:23:19.895Z,-0.7
2022-12-23T05:28:18.487Z,-0.6
2022-12-23T05:33:16.997Z,-0.4
2022-12-23T05:38:15.231Z,-0.4
2022-12-23T05:43:13.672Z,-0.6
2022-12-23T05:48:12.060Z,-0.4
2022-12-23T05:53:10.561Z,-0.3
2022-12-23T05:58:08.891Z,-0.4
2022-12-23T06:03:07.516Z,-0.3
2022-12-23T06:08:05.698Z,-0.2
2022-12-23T06:13:03.916Z,-0.3
2022-12-23T06:18:02.329Z,-0.2
2022-12-23T06:23:00.639Z,0
2022-12-23T06:27:59.108Z,0.4
2022-12-23T06:32:57.721Z,0.5
2022-12-23T06:37:56.215Z,0.7
2022-12-23T06:42:54.577Z,0.8
2022-12-23T06:47:53.281Z,0.8
2022-12-23T06:52:51.722Z,1.3
2022-12-23T06:57:50.127Z,1.3
2022-12-23T07:02:49.005Z,1.6
2022-12-23T07:07:47.542Z,2
2022-12-23T07:12:50.650Z,2.5
2022-12-23T07:17:45.243Z,3
2022-12-23T07:22:44.179Z,3.4
2022-12-23T07:27:43.429Z,4.5
2022-12-23T07:32:42.990Z,5.3
2022-12-23T07:37:41.331Z,5
2022-12-23T07:42:47.063Z,4.7
2022-12-23T07:47:38.875Z,6.2
2022-12-23T07:52:36.873Z,7.1
2022-12-23T07:57:41.342Z,11.3
2022-12-23T08:02:39.257Z,10.8
2022-12-23T08:07:36.739Z,9.9
2022-12-23T08:12:34.425Z,9
2022-12-23T08:17:32.115Z,8.9
2022-12-23T08:22:30.785Z,8.7
2022-12-23T08:27:28.752Z,7.8
2022-12-23T08:32:26.683Z,7.8
2022-12-23T08:37:25.600Z,8.5
2022-12-23T08:42:25.379Z,9.2
2022-12-23T08:47:23.998Z,9.8
2022-12-23T08:52:23.570Z,11.6
2022-12-23T08:57:24.072Z,12.8
2022-12-23T09:02:21.773Z,12.3
2022-12-23T09:07:20.041Z,11.7
2022-12-23T09:12:19.408Z,12.7
2022-12-23T09:17:25.529Z,18.6
2022-12-23T09:22:26.429Z,20
2022-12-23T09:27:26.299Z,21.1
2022-12-23T09:32:24.688Z,21.6
2022-12-23T09:37:24.766Z,23.4
2022-12-23T09:42:21.413Z,21.4
2022-12-23T09:47:16.705Z,18.9
2022-12-23T09:52:12.915Z,17.4
2022-12-23T09:57:10.375Z,16.4
2022-12-23T10:02:07.976Z,15.4
2022-12-23T10:07:05.688Z,14.9
2022-12-23T10:12:04.016Z,14.4
2022-12-23T10:17:02.587Z,14.4
2022-12-23T10:22:01.465Z,15.2
2022-12-23T10:27:00.397Z,15.5
2022-12-23T10:31:58.765Z,15.3
2022-12-23T10:36:57.148Z,15.1
2022-12-23T10:41:55.062Z,13.7
2022-12-23T10:46:53.498Z,14.2
2022-12-23T10:51:51.316Z,14.1
2022-12-23T10:56:49.493Z,13.4
2022-12-23T11:01:48.521Z,14.4
2022-12-23T11:06:47.070Z,14.3
2022-12-23T11:11:45.579Z,14.2
2022-12-23T11:16:44.311Z,14.8
2022-12-23T11:21:42.739Z,14.5
2022-12-23T11:26:40.924Z,14.1
2022-12-23T11:31:39.443Z,14.4
2022-12-23T11:36:38.127Z,14.6
2022-12-23T11:41:36.537Z,14.6
2022-12-23T11:46:34.487Z,14.4
2022-12-23T11:51:32.793Z,14.4
2022-12-23T11:56:30.914Z,14.6
2022-12-23T12:01:29.473Z,14.9
2022-12-23T12:06:27.850Z,15.2
2022-12-23T12:11:26.402Z,15
2022-12-23T12:16:24.867Z,15.2
2022-12-23T12:21:23.050Z,15
2022-12-23T12:26:21.132Z,14.5
2022-12-23T12:31:19.438Z,14.8
2022-12-23T12:36:17.816Z,14.7
2022-12-23T12:41:15.865Z,13.7
2022-12-23T12:46:13.318Z,12.6
2022-12-23T12:51:10.464Z,11.1
2022-12-23T12:56:07.994Z,10.1
2022-12-23T13:01:05.916Z,10
2022-12-23T13:06:04.413Z,10
2022-12-23T13:11:03.066Z,9.7
2022-12-23T13:16:01.468Z,9.6
2022-12-23T13:21:00.107Z,9.6
2022-12-23T13:25:58.532Z,9.5
2022-12-23T13:30:56.931Z,9.2
2022-12-23T13:35:57.361Z,8.1
2022-12-23T13:40:52.545Z,6.9
2022-12-23T13:45:50.251Z,6.3
2022-12-23T13:50:48.109Z,6
2022-12-23T13:55:45.867Z,5.5
2022-12-23T14:00:43.683Z,4.9
2022-12-23T14:05:41.596Z,4.7
2022-12-23T14:10:39.723Z,4.4
2022-12-23T14:15:38.054Z,4.1
2022-12-23T14:20:36.046Z,3.9
2022-12-23T14:25:34.185Z,3.7
2022-12-23T14:30:32.595Z,3.9
2022-12-23T14:35:33.351Z,3.5
2022-12-23T14:40:29.308Z,3.3
2022-12-23T14:45:27.587Z,3.3
2022-12-23T14:50:25.634Z,2.8
2022-12-23T14:55:31.830Z,2.6
2022-12-23T15:00:21.826Z,2.1
2022-12-23T15:05:19.828Z,2
2022-12-23T15:10:17.999Z,1.9
2022-12-23T15:15:16.390Z,1.7
2022-12-23T15:20:14.884Z,1.9
2022-12-23T15:25:13.229Z,1.8
2022-12-23T15:30:11.818Z,1.8
2022-12-23T15:35:09.916Z,1.8
2022-12-23T15:40:12.897Z,2.2
2022-12-23T15:45:07.104Z,2.6
2022-12-23T15:50:05.726Z,2.8
2022-12-23T15:55:03.588Z,3
2022-12-23T16:00:02.048Z,3
2022-12-23T16:05:00.294Z,3
2022-12-23T16:09:58.817Z,2.9
2022-12-23T16:14:56.223Z,2.8
2022-12-23T16:19:54.456Z,2.7
2022-12-23T16:24:52.632Z,2.8
2022-12-23T16:29:51.010Z,2.8
2022-12-23T16:34:49.479Z,2.7
2022-12-23T16:39:47.658Z,2.4
2022-12-23T16:44:45.596Z,2
2022-12-23T16:49:43.660Z,1.7
2022-12-23T16:54:41.562Z,1.5
2022-12-23T16:59:39.814Z,1.4
2022-12-23T17:04:36.008Z,1.1
2022-12-23T17:09:34.150Z,1
2022-12-23T17:14:32.441Z,0.9
2022-12-23T17:19:30.737Z,0.7
2022-12-23T17:24:29.013Z,0.8
2022-12-23T17:29:27.160Z,0.6
2022-12-23T17:34:25.292Z,0.5
2022-12-23T17:39:23.642Z,0.4
2022-12-23T17:44:21.986Z,0.4
2022-12-23T17:49:20.191Z,0.3
2022-12-23T17:54:18.552Z,0.3
2022-12-23T17:59:16.760Z,0.2
2022-12-23T18:04:15.108Z,0.1
2022-12-23T18:09:13.409Z,0
2022-12-23T18:14:11.885Z,0.1
2022-12-23T18:19:10.396Z,0
2022-12-23T18:24:08.743Z,0.1
2022-12-23T18:29:06.979Z,0
2022-12-23T18:34:05.122Z,0
2022-12-23T18:39:03.597Z,0
2022-12-23T18:44:01.924Z,0
2022-12-23T18:49:00.420Z,-0.1
2022-12-23T18:53:58.930Z,-0.1
2022-12-23T18:58:57.214Z,-0.2
2022-12-23T19:03:55.629Z,-0.3
2022-12-23T19:08:54.060Z,-0.1
2022-12-23T19:13:52.317Z,-0.2
2022-12-23T19:18:50.693Z,-0.2
2022-12-23T19:23:49.248Z,-0.1
2022-12-23T19:28:47.485Z,-0.2
2022-12-23T19:33:45.876Z,-0.3
2022-12-23T19:38:44.300Z,-0.3
2022-12-23T19:43:42.514Z,-0.4
2022-12-23T19:48:40.861Z,-0.4
2022-12-23T19:53:39.185Z,-0.6
2022-12-23T19:58:37.330Z,-0.7
2022-12-23T20:03:35.566Z,-0.6
2022-12-23T20:08:33.950Z,-0.6
2022-12-23T20:13:32.375Z,-0.6
2022-12-23T20:18:30.534Z,-0.7
2022-12-23T20:23:28.610Z,-0.9
2022-12-23T20:28:26.861Z,-1
2022-12-23T20:33:25.567Z,-1
2022-12-23T20:38:23.826Z,-1
2022-12-23T20:43:22.199Z,-1.1
2022-12-23T20:48:20.601Z,-1.1
2022-12-23T20:53:19.028Z,-1.2
2022-12-23T20:58:17.545Z,-1.3
2022-12-23T21:03:16.143Z,-1.3
2022-12-23T21:08:14.476Z,-1.4
2022-12-23T21:13:13.005Z,-1.4
2022-12-23T21:18:11.523Z,-1.4
2022-12-23T21:23:07.662Z,-1.4
2022-12-23T21:28:06.117Z,-1.5
2022-12-23T21:33:04.585Z,-1.5
2022-12-23T21:38:03.054Z,-1.6
2022-12-23T21:43:07.000Z,-1.6
2022-12-23T21:48:01.221Z,-1.6
2022-12-23T21:52:59.753Z,-1.6
2022-12-23T21:57:58.270Z,-1.7
2022-12-23T22:02:56.582Z,-1.8
2022-12-23T22:07:55.229Z,-1.8
2022-12-23T22:12:53.679Z,-1.8
2022-12-23T22:17:52.291Z,-1.8
2022-12-23T22:22:50.913Z,-1.8
2022-12-23T22:27:49.442Z,-1.8
2022-12-23T22:32:47.850Z,-1.8
2022-12-23T22:37:46.452Z,-2
2022-12-23T22:42:44.524Z,-2.1
2022-12-23T22:47:42.723Z,-2.2
2022-12-23T22:52:40.588Z,-2.3
2022-12-23T22:57:38.823Z,-2.3
2022-12-23T23:02:37.363Z,-2.4
2022-12-23T23:07:35.632Z,-2.5
2022-12-23T23:12:34.136Z,-2.4
2022-12-23T23:17:33.053Z,-2.4
2022-12-23T23:22:31.319Z,-2.4
2022-12-23T23:27:29.715Z,-2.3
2022-12-23T23:32:28.107Z,-2.4
2022-12-23T23:37:26.503Z,-2.5
2022-12-23T23:42:25.171Z,-2.5
2022-12-23T23:47:23.768Z,-2.6
2022-12-23T23:52:22.055Z,-2.7
2022-12-23T23:57:20.367Z,-2.7
